sensor_id;sensor_type;location;lat;lon;timestamp;P1;durP1;ratioP1;P2;durP2;ratioP2
18445;SDS011;9352;50.888;4.466;2023-01-28T00:00:53;13.93;;;9.13;;
18445;SDS011;9352;50.888;4.466;2023-01-28T00:03:20;15.37;;;9.60;;
18445;SDS011;9352;50.888;4.466;2023-01-28T00:05:47;13.50;;;9.53;;
18445;SDS011;9352;50.888;4.466;2023-01-28T00:08:14;14.70;;;9.30;;
18445;SDS011;9352;50.888;4.466;2023-01-28T00:10:43;14.80;;;9.53;;
18445;SDS011;9352;50.888;4.466;2023-01-28T00:13:10;16.07;;;9.83;;
18445;SDS011;9352;50.888;4.466;2023-01-28T00:15:38;16.63;;;10.03;;
18445;SDS011;9352;50.888;4.466;2023-01-28T00:18:05;16.20;;;9.73;;
18445;SDS011;9352;50.888;4.466;2023-01-28T00:20:32;17.43;;;9.70;;
18445;SDS011;9352;50.888;4.466;2023-01-28T00:23:00;15.93;;;9.77;;
18445;SDS011;9352;50.888;4.466;2023-01-28T00:25:27;14.83;;;9.43;;
18445;SDS011;9352;50.888;4.466;2023-01-28T00:27:56;15.47;;;9.93;;
18445;SDS011;9352;50.888;4.466;2023-01-28T00:30:22;15.20;;;9.40;;
18445;SDS011;9352;50.888;4.466;2023-01-28T00:32:49;17.27;;;9.67;;
18445;SDS011;9352;50.888;4.466;2023-01-28T00:35:18;15.93;;;10.03;;
18445;SDS011;9352;50.888;4.466;2023-01-28T00:37:45;17.33;;;10.03;;
18445;SDS011;9352;50.888;4.466;2023-01-28T00:40:12;16.47;;;9.87;;
18445;SDS011;9352;50.888;4.466;2023-01-28T00:42:39;14.57;;;9.10;;
18445;SDS011;9352;50.888;4.466;2023-01-28T00:45:08;17.27;;;9.20;;
18445;SDS011;9352;50.888;4.466;2023-01-28T00:47:35;15.07;;;9.63;;
18445;SDS011;9352;50.888;4.466;2023-01-28T00:50:03;14.73;;;9.37;;
18445;SDS011;9352;50.888;4.466;2023-01-28T00:52:30;15.67;;;9.90;;
18445;SDS011;9352;50.888;4.466;2023-01-28T00:54:57;15.53;;;9.63;;
18445;SDS011;9352;50.888;4.466;2023-01-28T00:57:25;13.60;;;9.33;;
18445;SDS011;9352;50.888;4.466;2023-01-28T00:59:51;14.03;;;8.47;;
18445;SDS011;9352;50.888;4.466;2023-01-28T01:02:20;14.73;;;9.47;;
18445;SDS011;9352;50.888;4.466;2023-01-28T01:04:47;13.37;;;8.57;;
18445;SDS011;9352;50.888;4.466;2023-01-28T01:07:23;17.57;;;9.27;;
18445;SDS011;9352;50.888;4.466;2023-01-28T01:09:56;13.80;;;8.97;;
18445;SDS011;9352;50.888;4.466;2023-01-28T01:12:24;15.37;;;9.03;;
18445;SDS011;9352;50.888;4.466;2023-01-28T01:14:51;16.03;;;8.57;;
18445;SDS011;9352;50.888;4.466;2023-01-28T01:17:19;13.60;;;8.77;;
18445;SDS011;9352;50.888;4.466;2023-01-28T01:19:46;12.60;;;8.47;;
18445;SDS011;9352;50.888;4.466;2023-01-28T01:22:13;14.03;;;8.93;;
18445;SDS011;9352;50.888;4.466;2023-01-28T01:24:40;14.70;;;8.63;;
18445;SDS011;9352;50.888;4.466;2023-01-28T01:27:07;14.07;;;8.97;;
18445;SDS011;9352;50.888;4.466;2023-01-28T01:29:34;12.53;;;8.57;;
18445;SDS011;9352;50.888;4.466;2023-01-28T01:32:00;14.57;;;9.07;;
18445;SDS011;9352;50.888;4.466;2023-01-28T01:34:29;14.13;;;8.90;;
18445;SDS011;9352;50.888;4.466;2023-01-28T01:36:56;17.03;;;10.10;;
18445;SDS011;9352;50.888;4.466;2023-01-28T01:39:23;15.63;;;9.57;;
18445;SDS011;9352;50.888;4.466;2023-01-28T01:41:50;15.20;;;9.50;;
18445;SDS011;9352;50.888;4.466;2023-01-28T01:47:17;17.17;;;9.83;;
18445;SDS011;9352;50.888;4.466;2023-01-28T01:49:47;16.33;;;10.10;;
18445;SDS011;9352;50.888;4.466;2023-01-28T01:52:14;16.57;;;10.23;;
18445;SDS011;9352;50.888;4.466;2023-01-28T01:54:47;16.33;;;9.50;;
18445;SDS011;9352;50.888;4.466;2023-01-28T01:57:18;18.00;;;10.23;;
18445;SDS011;9352;50.888;4.466;2023-01-28T01:59:49;18.03;;;10.47;;
18445;SDS011;9352;50.888;4.466;2023-01-28T02:02:16;16.90;;;10.30;;
18445;SDS011;9352;50.888;4.466;2023-01-28T02:04:43;17.73;;;10.53;;
18445;SDS011;9352;50.888;4.466;2023-01-28T02:07:12;17.23;;;9.77;;
18445;SDS011;9352;50.888;4.466;2023-01-28T02:09:41;17.43;;;10.63;;
18445;SDS011;9352;50.888;4.466;2023-01-28T02:12:08;18.97;;;10.27;;
18445;SDS011;9352;50.888;4.466;2023-01-28T02:14:40;20.93;;;10.43;;
18445;SDS011;9352;50.888;4.466;2023-01-28T02:17:10;18.13;;;10.50;;
18445;SDS011;9352;50.888;4.466;2023-01-28T02:19:39;18.57;;;10.63;;
18445;SDS011;9352;50.888;4.466;2023-01-28T02:22:25;17.20;;;10.13;;
18445;SDS011;9352;50.888;4.466;2023-01-28T02:25:18;18.60;;;9.37;;
18445;SDS011;9352;50.888;4.466;2023-01-28T02:28:08;17.07;;;9.87;;
18445;SDS011;9352;50.888;4.466;2023-01-28T02:30:43;18.27;;;10.60;;
18445;SDS011;9352;50.888;4.466;2023-01-28T02:33:18;16.57;;;10.07;;
18445;SDS011;9352;50.888;4.466;2023-01-28T02:35:53;20.60;;;10.40;;
18445;SDS011;9352;50.888;4.466;2023-01-28T02:38:22;19.40;;;10.80;;
18445;SDS011;9352;50.888;4.466;2023-01-28T02:40:55;19.37;;;9.97;;
18445;SDS011;9352;50.888;4.466;2023-01-28T02:43:35;17.67;;;9.90;;
18445;SDS011;9352;50.888;4.466;2023-01-28T02:46:07;17.73;;;10.17;;
18445;SDS011;9352;50.888;4.466;2023-01-28T02:48:58;20.37;;;10.63;;
18445;SDS011;9352;50.888;4.466;2023-01-28T02:51:28;18.47;;;10.63;;
18445;SDS011;9352;50.888;4.466;2023-01-28T02:54:07;19.60;;;10.50;;
18445;SDS011;9352;50.888;4.466;2023-01-28T02:56:41;18.17;;;10.37;;
18445;SDS011;9352;50.888;4.466;2023-01-28T02:59:16;18.90;;;10.40;;
18445;SDS011;9352;50.888;4.466;2023-01-28T03:01:59;18.47;;;10.57;;
18445;SDS011;9352;50.888;4.466;2023-01-28T03:04:33;21.10;;;10.57;;
18445;SDS011;9352;50.888;4.466;2023-01-28T03:07:04;17.03;;;9.70;;
18445;SDS011;9352;50.888;4.466;2023-01-28T03:09:34;18.77;;;10.33;;
18445;SDS011;9352;50.888;4.466;2023-01-28T03:12:02;20.23;;;10.53;;
18445;SDS011;9352;50.888;4.466;2023-01-28T03:14:51;16.60;;;9.67;;
18445;SDS011;9352;50.888;4.466;2023-01-28T03:17:40;18.10;;;10.10;;
18445;SDS011;9352;50.888;4.466;2023-01-28T03:20:28;19.70;;;10.03;;
18445;SDS011;9352;50.888;4.466;2023-01-28T03:23:19;18.60;;;9.70;;
18445;SDS011;9352;50.888;4.466;2023-01-28T03:26:10;16.63;;;9.30;;
18445;SDS011;9352;50.888;4.466;2023-01-28T03:28:57;17.73;;;9.60;;
18445;SDS011;9352;50.888;4.466;2023-01-28T03:31:49;20.00;;;10.47;;
18445;SDS011;9352;50.888;4.466;2023-01-28T03:34:34;21.70;;;10.80;;
18445;SDS011;9352;50.888;4.466;2023-01-28T03:37:19;17.73;;;9.83;;
18445;SDS011;9352;50.888;4.466;2023-01-28T03:39:50;17.57;;;9.50;;
18445;SDS011;9352;50.888;4.466;2023-01-28T03:42:17;17.40;;;9.87;;
18445;SDS011;9352;50.888;4.466;2023-01-28T03:44:44;17.03;;;9.57;;
18445;SDS011;9352;50.888;4.466;2023-01-28T03:47:16;16.70;;;9.37;;
18445;SDS011;9352;50.888;4.466;2023-01-28T03:49:43;20.37;;;9.90;;
18445;SDS011;9352;50.888;4.466;2023-01-28T03:52:13;18.33;;;9.97;;
18445;SDS011;9352;50.888;4.466;2023-01-28T03:54:41;17.23;;;9.77;;
18445;SDS011;9352;50.888;4.466;2023-01-28T03:57:08;17.60;;;9.67;;
18445;SDS011;9352;50.888;4.466;2023-01-28T03:59:35;17.10;;;9.57;;
18445;SDS011;9352;50.888;4.466;2023-01-28T04:02:02;15.53;;;8.77;;
18445;SDS011;9352;50.888;4.466;2023-01-28T04:04:31;17.03;;;9.80;;
18445;SDS011;9352;50.888;4.466;2023-01-28T04:06:58;21.30;;;9.23;;
18445;SDS011;9352;50.888;4.466;2023-01-28T04:09:25;18.97;;;9.73;;
18445;SDS011;9352;50.888;4.466;2023-01-28T04:11:52;18.30;;;9.97;;
18445;SDS011;9352;50.888;4.466;2023-01-28T04:14:19;16.10;;;8.80;;
18445;SDS011;9352;50.888;4.466;2023-01-28T04:16:46;16.03;;;8.97;;
18445;SDS011;9352;50.888;4.466;2023-01-28T04:19:13;16.00;;;9.10;;
18445;SDS011;9352;50.888;4.466;2023-01-28T04:21:41;17.73;;;9.17;;
18445;SDS011;9352;50.888;4.466;2023-01-28T04:24:08;15.33;;;8.70;;
18445;SDS011;9352;50.888;4.466;2023-01-28T04:26:35;17.47;;;10.00;;
18445;SDS011;9352;50.888;4.466;2023-01-28T04:29:02;15.27;;;9.20;;
18445;SDS011;9352;50.888;4.466;2023-01-28T04:31:29;18.10;;;10.13;;
18445;SDS011;9352;50.888;4.466;2023-01-28T04:33:56;16.70;;;9.60;;
18445;SDS011;9352;50.888;4.466;2023-01-28T04:36:24;15.50;;;9.30;;
18445;SDS011;9352;50.888;4.466;2023-01-28T04:38:52;17.70;;;9.83;;
18445;SDS011;9352;50.888;4.466;2023-01-28T04:41:19;17.60;;;9.57;;
18445;SDS011;9352;50.888;4.466;2023-01-28T04:43:46;16.97;;;9.27;;
18445;SDS011;9352;50.888;4.466;2023-01-28T04:46:14;17.87;;;9.23;;
18445;SDS011;9352;50.888;4.466;2023-01-28T04:48:41;16.27;;;9.50;;
18445;SDS011;9352;50.888;4.466;2023-01-28T04:51:08;16.47;;;9.23;;
18445;SDS011;9352;50.888;4.466;2023-01-28T04:53:35;17.87;;;9.73;;
18445;SDS011;9352;50.888;4.466;2023-01-28T04:56:03;16.90;;;9.57;;
18445;SDS011;9352;50.888;4.466;2023-01-28T04:58:30;20.90;;;9.90;;
18445;SDS011;9352;50.888;4.466;2023-01-28T05:00:57;17.97;;;9.97;;
18445;SDS011;9352;50.888;4.466;2023-01-28T05:03:25;18.57;;;10.37;;
18445;SDS011;9352;50.888;4.466;2023-01-28T05:05:52;20.17;;;10.40;;
18445;SDS011;9352;50.888;4.466;2023-01-28T05:08:19;19.47;;;11.43;;
18445;SDS011;9352;50.888;4.466;2023-01-28T05:10:46;18.63;;;10.47;;
18445;SDS011;9352;50.888;4.466;2023-01-28T05:13:14;17.80;;;10.23;;
18445;SDS011;9352;50.888;4.466;2023-01-28T05:15:41;18.73;;;10.30;;
18445;SDS011;9352;50.888;4.466;2023-01-28T05:18:08;18.63;;;10.60;;
18445;SDS011;9352;50.888;4.466;2023-01-28T05:20:35;18.13;;;10.13;;
18445;SDS011;9352;50.888;4.466;2023-01-28T05:23:02;19.97;;;11.23;;
18445;SDS011;9352;50.888;4.466;2023-01-28T05:25:29;20.27;;;11.53;;
18445;SDS011;9352;50.888;4.466;2023-01-28T05:27:56;19.63;;;10.40;;
18445;SDS011;9352;50.888;4.466;2023-01-28T05:30:24;18.90;;;10.87;;
18445;SDS011;9352;50.888;4.466;2023-01-28T05:32:53;18.50;;;10.03;;
18445;SDS011;9352;50.888;4.466;2023-01-28T05:35:20;14.13;;;8.47;;
18445;SDS011;9352;50.888;4.466;2023-01-28T05:37:47;15.83;;;9.20;;
18445;SDS011;9352;50.888;4.466;2023-01-28T05:40:14;17.53;;;9.60;;
18445;SDS011;9352;50.888;4.466;2023-01-28T05:42:41;18.20;;;10.50;;
18445;SDS011;9352;50.888;4.466;2023-01-28T05:45:08;17.73;;;9.97;;
18445;SDS011;9352;50.888;4.466;2023-01-28T05:47:37;18.00;;;10.53;;
18445;SDS011;9352;50.888;4.466;2023-01-28T05:50:04;18.00;;;10.03;;
18445;SDS011;9352;50.888;4.466;2023-01-28T05:52:32;17.30;;;9.40;;
18445;SDS011;9352;50.888;4.466;2023-01-28T05:54:59;15.60;;;9.83;;
18445;SDS011;9352;50.888;4.466;2023-01-28T05:57:27;19.20;;;9.60;;
18445;SDS011;9352;50.888;4.466;2023-01-28T05:59:54;17.87;;;10.63;;
18445;SDS011;9352;50.888;4.466;2023-01-28T06:02:21;19.60;;;10.63;;
18445;SDS011;9352;50.888;4.466;2023-01-28T06:04:49;25.47;;;10.57;;
18445;SDS011;9352;50.888;4.466;2023-01-28T06:07:16;19.27;;;10.30;;
18445;SDS011;9352;50.888;4.466;2023-01-28T06:09:44;19.37;;;10.57;;
18445;SDS011;9352;50.888;4.466;2023-01-28T06:12:11;17.53;;;10.00;;
18445;SDS011;9352;50.888;4.466;2023-01-28T06:14:38;20.10;;;10.70;;
18445;SDS011;9352;50.888;4.466;2023-01-28T06:17:05;21.53;;;10.70;;
18445;SDS011;9352;50.888;4.466;2023-01-28T06:19:32;18.77;;;10.00;;
18445;SDS011;9352;50.888;4.466;2023-01-28T06:22:01;20.13;;;10.43;;
18445;SDS011;9352;50.888;4.466;2023-01-28T06:24:28;19.73;;;10.10;;
18445;SDS011;9352;50.888;4.466;2023-01-28T06:26:54;17.00;;;10.00;;
18445;SDS011;9352;50.888;4.466;2023-01-28T06:29:21;18.07;;;10.20;;
18445;SDS011;9352;50.888;4.466;2023-01-28T06:31:48;16.53;;;9.47;;
18445;SDS011;9352;50.888;4.466;2023-01-28T06:34:16;15.93;;;9.83;;
18445;SDS011;9352;50.888;4.466;2023-01-28T06:36:43;16.60;;;9.67;;
18445;SDS011;9352;50.888;4.466;2023-01-28T06:39:16;20.17;;;9.77;;
18445;SDS011;9352;50.888;4.466;2023-01-28T06:41:43;17.80;;;9.07;;
18445;SDS011;9352;50.888;4.466;2023-01-28T06:44:10;15.13;;;9.20;;
18445;SDS011;9352;50.888;4.466;2023-01-28T06:46:37;14.90;;;9.13;;
18445;SDS011;9352;50.888;4.466;2023-01-28T06:49:04;17.87;;;10.03;;
18445;SDS011;9352;50.888;4.466;2023-01-28T06:51:31;17.53;;;9.40;;
18445;SDS011;9352;50.888;4.466;2023-01-28T06:53:57;14.90;;;9.10;;
18445;SDS011;9352;50.888;4.466;2023-01-28T06:56:26;16.67;;;9.43;;
18445;SDS011;9352;50.888;4.466;2023-01-28T06:58:53;19.90;;;9.97;;
18445;SDS011;9352;50.888;4.466;2023-01-28T07:01:20;14.93;;;9.10;;
18445;SDS011;9352;50.888;4.466;2023-01-28T07:03:46;17.33;;;9.47;;
18445;SDS011;9352;50.888;4.466;2023-01-28T07:06:13;18.23;;;9.17;;
18445;SDS011;9352;50.888;4.466;2023-01-28T07:08:40;17.63;;;9.50;;
18445;SDS011;9352;50.888;4.466;2023-01-28T07:11:07;16.10;;;9.23;;
18445;SDS011;9352;50.888;4.466;2023-01-28T07:13:35;17.73;;;9.53;;
18445;SDS011;9352;50.888;4.466;2023-01-28T07:16:02;17.50;;;10.10;;
18445;SDS011;9352;50.888;4.466;2023-01-28T07:18:30;15.53;;;9.30;;
18445;SDS011;9352;50.888;4.466;2023-01-28T07:20:57;16.80;;;9.53;;
18445;SDS011;9352;50.888;4.466;2023-01-28T07:23:24;17.63;;;9.87;;
18445;SDS011;9352;50.888;4.466;2023-01-28T07:25:50;16.03;;;9.77;;
18445;SDS011;9352;50.888;4.466;2023-01-28T07:28:17;20.87;;;10.13;;
18445;SDS011;9352;50.888;4.466;2023-01-28T07:30:48;17.23;;;10.10;;
18445;SDS011;9352;50.888;4.466;2023-01-28T07:33:16;17.23;;;9.67;;
18445;SDS011;9352;50.888;4.466;2023-01-28T07:35:43;20.73;;;11.10;;
18445;SDS011;9352;50.888;4.466;2023-01-28T07:38:11;18.43;;;10.20;;
18445;SDS011;9352;50.888;4.466;2023-01-28T07:40:38;18.13;;;10.40;;
18445;SDS011;9352;50.888;4.466;2023-01-28T07:43:07;17.83;;;10.27;;
18445;SDS011;9352;50.888;4.466;2023-01-28T07:45:34;16.87;;;10.00;;
18445;SDS011;9352;50.888;4.466;2023-01-28T07:48:04;18.93;;;9.37;;
18445;SDS011;9352;50.888;4.466;2023-01-28T07:50:33;15.77;;;9.60;;
18445;SDS011;9352;50.888;4.466;2023-01-28T07:53:02;23.53;;;10.17;;
18445;SDS011;9352;50.888;4.466;2023-01-28T07:55:29;17.33;;;10.30;;
18445;SDS011;9352;50.888;4.466;2023-01-28T07:57:59;17.80;;;10.43;;
18445;SDS011;9352;50.888;4.466;2023-01-28T08:00:27;18.40;;;9.87;;
18445;SDS011;9352;50.888;4.466;2023-01-28T08:02:56;15.97;;;9.50;;
18445;SDS011;9352;50.888;4.466;2023-01-28T08:05:29;21.83;;;10.50;;
18445;SDS011;9352;50.888;4.466;2023-01-28T08:08:03;21.20;;;10.53;;
18445;SDS011;9352;50.888;4.466;2023-01-28T08:10:31;28.07;;;14.50;;
18445;SDS011;9352;50.888;4.466;2023-01-28T08:12:58;20.73;;;11.20;;
18445;SDS011;9352;50.888;4.466;2023-01-28T08:15:24;19.07;;;10.97;;
18445;SDS011;9352;50.888;4.466;2023-01-28T08:17:52;20.40;;;11.47;;
18445;SDS011;9352;50.888;4.466;2023-01-28T08:20:19;22.70;;;11.17;;
18445;SDS011;9352;50.888;4.466;2023-01-28T08:22:48;20.27;;;11.70;;
18445;SDS011;9352;50.888;4.466;2023-01-28T08:25:15;21.23;;;10.57;;
18445;SDS011;9352;50.888;4.466;2023-01-28T08:27:42;19.67;;;10.90;;
18445;SDS011;9352;50.888;4.466;2023-01-28T08:30:09;21.47;;;10.90;;
18445;SDS011;9352;50.888;4.466;2023-01-28T08:32:37;18.00;;;10.37;;
18445;SDS011;9352;50.888;4.466;2023-01-28T08:35:07;21.73;;;11.33;;
18445;SDS011;9352;50.888;4.466;2023-01-28T08:37:34;22.57;;;12.23;;
18445;SDS011;9352;50.888;4.466;2023-01-28T08:40:02;23.13;;;11.33;;
18445;SDS011;9352;50.888;4.466;2023-01-28T08:42:30;21.70;;;11.87;;
18445;SDS011;9352;50.888;4.466;2023-01-28T08:44:57;20.50;;;11.57;;
18445;SDS011;9352;50.888;4.466;2023-01-28T08:47:23;22.67;;;12.10;;
18445;SDS011;9352;50.888;4.466;2023-01-28T08:49:50;21.17;;;11.63;;
18445;SDS011;9352;50.888;4.466;2023-01-28T08:52:17;28.43;;;12.03;;
18445;SDS011;9352;50.888;4.466;2023-01-28T08:54:47;22.47;;;12.13;;
18445;SDS011;9352;50.888;4.466;2023-01-28T08:57:15;23.67;;;12.53;;
18445;SDS011;9352;50.888;4.466;2023-01-28T08:59:42;21.47;;;11.17;;
18445;SDS011;9352;50.888;4.466;2023-01-28T09:02:11;22.67;;;12.57;;
18445;SDS011;9352;50.888;4.466;2023-01-28T09:04:39;25.57;;;12.70;;
18445;SDS011;9352;50.888;4.466;2023-01-28T09:07:07;23.27;;;12.07;;
18445;SDS011;9352;50.888;4.466;2023-01-28T09:09:34;21.27;;;11.87;;
18445;SDS011;9352;50.888;4.466;2023-01-28T09:12:01;26.87;;;11.87;;
18445;SDS011;9352;50.888;4.466;2023-01-28T09:14:29;24.00;;;12.87;;
18445;SDS011;9352;50.888;4.466;2023-01-28T09:16:56;26.43;;;13.40;;
18445;SDS011;9352;50.888;4.466;2023-01-28T09:19:23;34.90;;;16.17;;
18445;SDS011;9352;50.888;4.466;2023-01-28T09:21:50;19.37;;;10.87;;
18445;SDS011;9352;50.888;4.466;2023-01-28T09:24:17;26.77;;;13.33;;
18445;SDS011;9352;50.888;4.466;2023-01-28T09:26:44;42.43;;;21.17;;
18445;SDS011;9352;50.888;4.466;2023-01-28T09:29:10;44.63;;;23.23;;
18445;SDS011;9352;50.888;4.466;2023-01-28T09:31:40;40.60;;;21.77;;
18445;SDS011;9352;50.888;4.466;2023-01-28T09:34:07;32.33;;;16.63;;
18445;SDS011;9352;50.888;4.466;2023-01-28T09:36:34;28.50;;;15.53;;
18445;SDS011;9352;50.888;4.466;2023-01-28T09:39:01;19.03;;;11.20;;
18445;SDS011;9352;50.888;4.466;2023-01-28T09:41:32;20.80;;;11.87;;
18445;SDS011;9352;50.888;4.466;2023-01-28T09:44:19;21.37;;;11.30;;
18445;SDS011;9352;50.888;4.466;2023-01-28T09:46:59;23.90;;;12.17;;
18445;SDS011;9352;50.888;4.466;2023-01-28T09:49:31;44.03;;;12.83;;
18445;SDS011;9352;50.888;4.466;2023-01-28T09:52:02;21.33;;;11.80;;
18445;SDS011;9352;50.888;4.466;2023-01-28T09:54:32;23.37;;;11.63;;
18445;SDS011;9352;50.888;4.466;2023-01-28T09:57:06;32.97;;;14.60;;
18445;SDS011;9352;50.888;4.466;2023-01-28T09:59:39;39.00;;;14.97;;
18445;SDS011;9352;50.888;4.466;2023-01-28T10:05:06;21.37;;;11.37;;
18445;SDS011;9352;50.888;4.466;2023-01-28T10:07:43;29.87;;;14.33;;
18445;SDS011;9352;50.888;4.466;2023-01-28T10:10:16;51.67;;;18.13;;
18445;SDS011;9352;50.888;4.466;2023-01-28T10:12:49;27.77;;;13.00;;
18445;SDS011;9352;50.888;4.466;2023-01-28T10:18:31;30.37;;;13.73;;
18445;SDS011;9352;50.888;4.466;2023-01-28T10:21:07;33.33;;;14.40;;
18445;SDS011;9352;50.888;4.466;2023-01-28T10:23:44;33.90;;;13.83;;
18445;SDS011;9352;50.888;4.466;2023-01-28T10:26:17;36.93;;;15.77;;
18445;SDS011;9352;50.888;4.466;2023-01-28T10:28:50;35.57;;;14.80;;
18445;SDS011;9352;50.888;4.466;2023-01-28T10:31:20;38.77;;;15.37;;
18445;SDS011;9352;50.888;4.466;2023-01-28T10:33:49;34.07;;;14.17;;
18445;SDS011;9352;50.888;4.466;2023-01-28T10:36:16;25.43;;;12.07;;
18445;SDS011;9352;50.888;4.466;2023-01-28T10:38:44;48.60;;;17.93;;
18445;SDS011;9352;50.888;4.466;2023-01-28T10:41:12;19.63;;;10.82;;
18445;SDS011;9352;50.888;4.466;2023-01-28T10:43:45;17.77;;;10.40;;
18445;SDS011;9352;50.888;4.466;2023-01-28T10:46:14;32.17;;;13.87;;
18445;SDS011;9352;50.888;4.466;2023-01-28T10:48:44;27.80;;;12.10;;
18445;SDS011;9352;50.888;4.466;2023-01-28T10:51:15;36.63;;;13.60;;
18445;SDS011;9352;50.888;4.466;2023-01-28T10:53:44;53.93;;;19.27;;
18445;SDS011;9352;50.888;4.466;2023-01-28T10:56:12;78.73;;;25.83;;
18445;SDS011;9352;50.888;4.466;2023-01-28T10:58:46;23.30;;;12.50;;
18445;SDS011;9352;50.888;4.466;2023-01-28T11:01:18;49.10;;;17.40;;
18445;SDS011;9352;50.888;4.466;2023-01-28T11:03:53;34.30;;;15.50;;
18445;SDS011;9352;50.888;4.466;2023-01-28T11:06:25;27.63;;;13.10;;
18445;SDS011;9352;50.888;4.466;2023-01-28T11:08:54;30.37;;;13.33;;
18445;SDS011;9352;50.888;4.466;2023-01-28T11:11:23;23.13;;;10.77;;
18445;SDS011;9352;50.888;4.466;2023-01-28T11:13:52;20.97;;;10.17;;
18445;SDS011;9352;50.888;4.466;2023-01-28T11:16:22;19.93;;;10.87;;
18445;SDS011;9352;50.888;4.466;2023-01-28T11:18:51;23.57;;;10.67;;
18445;SDS011;9352;50.888;4.466;2023-01-28T11:21:19;18.77;;;10.50;;
18445;SDS011;9352;50.888;4.466;2023-01-28T11:23:50;17.40;;;10.13;;
18445;SDS011;9352;50.888;4.466;2023-01-28T11:26:21;20.93;;;10.90;;
18445;SDS011;9352;50.888;4.466;2023-01-28T11:28:50;18.77;;;10.47;;
18445;SDS011;9352;50.888;4.466;2023-01-28T11:31:19;23.33;;;10.70;;
18445;SDS011;9352;50.888;4.466;2023-01-28T11:33:49;17.17;;;10.00;;
18445;SDS011;9352;50.888;4.466;2023-01-28T11:36:18;18.67;;;10.90;;
18445;SDS011;9352;50.888;4.466;2023-01-28T11:38:51;16.70;;;10.53;;
18445;SDS011;9352;50.888;4.466;2023-01-28T11:41:23;21.00;;;11.67;;
18445;SDS011;9352;50.888;4.466;2023-01-28T11:43:53;17.45;;;9.95;;
18445;SDS011;9352;50.888;4.466;2023-01-28T11:46:25;18.02;;;11.25;;
18445;SDS011;9352;50.888;4.466;2023-01-28T11:49:06;23.70;;;11.43;;
18445;SDS011;9352;50.888;4.466;2023-01-28T11:51:41;17.93;;;10.63;;
18445;SDS011;9352;50.888;4.466;2023-01-28T11:54:20;19.40;;;10.40;;
18445;SDS011;9352;50.888;4.466;2023-01-28T11:57:03;17.10;;;10.27;;
18445;SDS011;9352;50.888;4.466;2023-01-28T11:59:44;22.87;;;11.17;;
18445;SDS011;9352;50.888;4.466;2023-01-28T12:02:24;19.53;;;9.97;;
18445;SDS011;9352;50.888;4.466;2023-01-28T12:05:11;26.03;;;10.90;;
18445;SDS011;9352;50.888;4.466;2023-01-28T12:07:51;18.33;;;10.07;;
18445;SDS011;9352;50.888;4.466;2023-01-28T12:10:28;19.67;;;11.13;;
18445;SDS011;9352;50.888;4.466;2023-01-28T12:13:09;18.67;;;9.50;;
18445;SDS011;9352;50.888;4.466;2023-01-28T12:18:48;23.53;;;12.30;;
18445;SDS011;9352;50.888;4.466;2023-01-28T12:21:40;18.83;;;10.80;;
18445;SDS011;9352;50.888;4.466;2023-01-28T12:24:21;17.00;;;10.00;;
18445;SDS011;9352;50.888;4.466;2023-01-28T12:27:02;17.85;;;9.68;;
18445;SDS011;9352;50.888;4.466;2023-01-28T12:29:39;18.60;;;10.40;;
18445;SDS011;9352;50.888;4.466;2023-01-28T12:32:24;17.60;;;10.17;;
18445;SDS011;9352;50.888;4.466;2023-01-28T12:35:10;18.07;;;10.07;;
18445;SDS011;9352;50.888;4.466;2023-01-28T12:37:54;16.90;;;9.98;;
18445;SDS011;9352;50.888;4.466;2023-01-28T12:43:19;18.00;;;10.18;;
18445;SDS011;9352;50.888;4.466;2023-01-28T12:45:53;17.75;;;10.70;;
18445;SDS011;9352;50.888;4.466;2023-01-28T12:48:23;16.60;;;9.80;;
18445;SDS011;9352;50.888;4.466;2023-01-28T12:50:59;21.25;;;10.52;;
18445;SDS011;9352;50.888;4.466;2023-01-28T12:53:31;20.63;;;11.00;;
18445;SDS011;9352;50.888;4.466;2023-01-28T12:56:05;17.63;;;10.75;;
18445;SDS011;9352;50.888;4.466;2023-01-28T12:58:42;22.83;;;12.07;;
18445;SDS011;9352;50.888;4.466;2023-01-28T13:01:15;22.73;;;12.17;;
18445;SDS011;9352;50.888;4.466;2023-01-28T13:03:48;38.40;;;14.10;;
18445;SDS011;9352;50.888;4.466;2023-01-28T13:06:20;32.27;;;14.43;;
18445;SDS011;9352;50.888;4.466;2023-01-28T13:08:55;26.83;;;13.33;;
18445;SDS011;9352;50.888;4.466;2023-01-28T13:11:25;26.88;;;12.57;;
18445;SDS011;9352;50.888;4.466;2023-01-28T13:14:01;26.57;;;13.47;;
18445;SDS011;9352;50.888;4.466;2023-01-28T13:16:29;26.33;;;13.27;;
18445;SDS011;9352;50.888;4.466;2023-01-28T13:19:03;22.87;;;13.37;;
18445;SDS011;9352;50.888;4.466;2023-01-28T13:21:34;20.10;;;12.20;;
18445;SDS011;9352;50.888;4.466;2023-01-28T13:24:03;20.50;;;12.68;;
18445;SDS011;9352;50.888;4.466;2023-01-28T13:26:36;22.30;;;12.73;;
18445;SDS011;9352;50.888;4.466;2023-01-28T13:29:18;23.70;;;12.65;;
18445;SDS011;9352;50.888;4.466;2023-01-28T13:31:48;23.98;;;13.05;;
18445;SDS011;9352;50.888;4.466;2023-01-28T13:34:30;20.07;;;11.73;;
18445;SDS011;9352;50.888;4.466;2023-01-28T13:37:00;23.27;;;13.07;;
18445;SDS011;9352;50.888;4.466;2023-01-28T13:39:30;21.25;;;12.05;;
18445;SDS011;9352;50.888;4.466;2023-01-28T13:42:07;21.33;;;11.40;;
18445;SDS011;9352;50.888;4.466;2023-01-28T13:44:51;19.05;;;11.35;;
18445;SDS011;9352;50.888;4.466;2023-01-28T13:47:20;20.48;;;12.15;;
18445;SDS011;9352;50.888;4.466;2023-01-28T13:49:53;23.70;;;12.13;;
18445;SDS011;9352;50.888;4.466;2023-01-28T13:52:24;22.43;;;13.03;;
18445;SDS011;9352;50.888;4.466;2023-01-28T13:54:54;20.33;;;11.70;;
18445;SDS011;9352;50.888;4.466;2023-01-28T13:57:40;21.80;;;12.07;;
18445;SDS011;9352;50.888;4.466;2023-01-28T14:00:26;22.07;;;12.27;;
18445;SDS011;9352;50.888;4.466;2023-01-28T14:08:58;31.60;;;15.13;;
18445;SDS011;9352;50.888;4.466;2023-01-28T14:11:48;21.38;;;11.65;;
18445;SDS011;9352;50.888;4.466;2023-01-28T14:14:41;21.38;;;11.95;;
18445;SDS011;9352;50.888;4.466;2023-01-28T14:17:42;26.50;;;12.43;;
18445;SDS011;9352;50.888;4.466;2023-01-28T14:20:16;23.45;;;11.88;;
18445;SDS011;9352;50.888;4.466;2023-01-28T14:22:45;26.30;;;12.17;;
18445;SDS011;9352;50.888;4.466;2023-01-28T14:25:15;23.67;;;12.47;;
18445;SDS011;9352;50.888;4.466;2023-01-28T14:27:46;20.48;;;12.30;;
18445;SDS011;9352;50.888;4.466;2023-01-28T14:30:19;19.35;;;11.35;;
18445;SDS011;9352;50.888;4.466;2023-01-28T14:32:53;20.35;;;11.90;;
18445;SDS011;9352;50.888;4.466;2023-01-28T14:35:23;21.48;;;11.82;;
18445;SDS011;9352;50.888;4.466;2023-01-28T14:37:55;19.92;;;11.85;;
18445;SDS011;9352;50.888;4.466;2023-01-28T14:40:24;21.38;;;11.75;;
18445;SDS011;9352;50.888;4.466;2023-01-28T14:42:54;26.02;;;11.82;;
18445;SDS011;9352;50.888;4.466;2023-01-28T14:45:30;23.30;;;11.32;;
18445;SDS011;9352;50.888;4.466;2023-01-28T14:48:22;25.23;;;11.85;;
18445;SDS011;9352;50.888;4.466;2023-01-28T14:51:00;20.33;;;11.00;;
18445;SDS011;9352;50.888;4.466;2023-01-28T14:56:27;21.08;;;11.18;;
18445;SDS011;9352;50.888;4.466;2023-01-28T14:59:03;19.08;;;10.45;;
18445;SDS011;9352;50.888;4.466;2023-01-28T15:01:41;26.67;;;10.45;;
18445;SDS011;9352;50.888;4.466;2023-01-28T15:04:21;20.52;;;11.43;;
18445;SDS011;9352;50.888;4.466;2023-01-28T15:06:49;22.13;;;11.00;;
18445;SDS011;9352;50.888;4.466;2023-01-28T15:09:16;22.77;;;10.95;;
18445;SDS011;9352;50.888;4.466;2023-01-28T15:11:44;23.45;;;10.45;;
18445;SDS011;9352;50.888;4.466;2023-01-28T15:14:14;23.43;;;10.40;;
18445;SDS011;9352;50.888;4.466;2023-01-28T15:16:52;16.77;;;9.73;;
18445;SDS011;9352;50.888;4.466;2023-01-28T15:19:23;20.07;;;10.93;;
18445;SDS011;9352;50.888;4.466;2023-01-28T15:21:53;17.80;;;9.60;;
18445;SDS011;9352;50.888;4.466;2023-01-28T15:24:22;20.43;;;9.80;;